sensor_id;sensor_type;location;lat;lon;timestamp;P1;durP1;ratioP1;P2;durP2;ratioP2
8777;SDS011;4425;50.872;4.712;2022-11-21T00:01:39;7.43;;;2.83;;
8777;SDS011;4425;50.872;4.712;2022-11-21T00:04:24;6.87;;;2.73;;
8777;SDS011;4425;50.872;4.712;2022-11-21T00:07:36;7.60;;;2.93;;
8777;SDS011;4425;50.872;4.712;2022-11-21T00:10:08;4.90;;;2.50;;
8777;SDS011;4425;50.872;4.712;2022-11-21T00:12:58;4.27;;;2.13;;
8777;SDS011;4425;50.872;4.712;2022-11-21T00:18:19;8.27;;;2.43;;
8777;SDS011;4425;50.872;4.712;2022-11-21T00:21:04;2.87;;;2.30;;
8777;SDS011;4425;50.872;4.712;2022-11-21T00:23:47;9.93;;;2.77;;
8777;SDS011;4425;50.872;4.712;2022-11-21T00:26:17;5.43;;;2.60;;
8777;SDS011;4425;50.872;4.712;2022-11-21T00:28:45;5.03;;;2.77;;
8777;SDS011;4425;50.872;4.712;2022-11-21T00:31:21;7.00;;;2.90;;
8777;SDS011;4425;50.872;4.712;2022-11-21T00:33:49;6.90;;;3.57;;
8777;SDS011;4425;50.872;4.712;2022-11-21T00:36:17;9.43;;;2.90;;
8777;SDS011;4425;50.872;4.712;2022-11-21T00:38:48;10.53;;;3.60;;
8777;SDS011;4425;50.872;4.712;2022-11-21T00:41:16;7.30;;;3.10;;
8777;SDS011;4425;50.872;4.712;2022-11-21T00:44:02;6.77;;;3.20;;
8777;SDS011;4425;50.872;4.712;2022-11-21T00:49:38;11.60;;;3.80;;
8777;SDS011;4425;50.872;4.712;2022-11-21T00:52:07;11.40;;;4.20;;
8777;SDS011;4425;50.872;4.712;2022-11-21T00:54:45;13.00;;;4.20;;
8777;SDS011;4425;50.872;4.712;2022-11-21T00:57:12;11.33;;;4.17;;
8777;SDS011;4425;50.872;4.712;2022-11-21T00:59:42;10.37;;;4.20;;
8777;SDS011;4425;50.872;4.712;2022-11-21T01:05:16;12.30;;;4.33;;
8777;SDS011;4425;50.872;4.712;2022-11-21T01:08:00;12.53;;;4.07;;
8777;SDS011;4425;50.872;4.712;2022-11-21T01:11:04;12.27;;;4.37;;
8777;SDS011;4425;50.872;4.712;2022-11-21T01:13:37;10.40;;;4.30;;
8777;SDS011;4425;50.872;4.712;2022-11-21T01:16:27;9.83;;;3.80;;
8777;SDS011;4425;50.872;4.712;2022-11-21T01:22:08;11.30;;;4.43;;
8777;SDS011;4425;50.872;4.712;2022-11-21T01:24:37;13.80;;;4.60;;
8777;SDS011;4425;50.872;4.712;2022-11-21T01:27:05;8.83;;;3.90;;
8777;SDS011;4425;50.872;4.712;2022-11-21T01:29:32;7.73;;;4.50;;
8777;SDS011;4425;50.872;4.712;2022-11-21T01:32:01;12.13;;;4.73;;
8777;SDS011;4425;50.872;4.712;2022-11-21T01:34:32;13.10;;;5.03;;
8777;SDS011;4425;50.872;4.712;2022-11-21T01:36:59;10.50;;;4.50;;
8777;SDS011;4425;50.872;4.712;2022-11-21T01:39:26;8.40;;;4.37;;
8777;SDS011;4425;50.872;4.712;2022-11-21T01:41:55;8.60;;;3.93;;
8777;SDS011;4425;50.872;4.712;2022-11-21T01:44:23;10.00;;;4.37;;
8777;SDS011;4425;50.872;4.712;2022-11-21T01:46:52;9.40;;;4.10;;
8777;SDS011;4425;50.872;4.712;2022-11-21T01:49:22;11.47;;;4.03;;
8777;SDS011;4425;50.872;4.712;2022-11-21T01:51:56;13.67;;;4.00;;
8777;SDS011;4425;50.872;4.712;2022-11-21T01:54:28;10.87;;;4.13;;
8777;SDS011;4425;50.872;4.712;2022-11-21T01:56:59;6.77;;;3.70;;
8777;SDS011;4425;50.872;4.712;2022-11-21T01:59:31;8.87;;;4.33;;
8777;SDS011;4425;50.872;4.712;2022-11-21T02:02:02;12.00;;;4.10;;
8777;SDS011;4425;50.872;4.712;2022-11-21T02:04:34;8.63;;;3.67;;
8777;SDS011;4425;50.872;4.712;2022-11-21T02:07:04;7.67;;;3.73;;
8777;SDS011;4425;50.872;4.712;2022-11-21T02:12:08;12.30;;;4.00;;
8777;SDS011;4425;50.872;4.712;2022-11-21T02:14:40;7.37;;;3.50;;
8777;SDS011;4425;50.872;4.712;2022-11-21T02:17:11;6.20;;;3.63;;
8777;SDS011;4425;50.872;4.712;2022-11-21T02:19:42;9.77;;;3.60;;
8777;SDS011;4425;50.872;4.712;2022-11-21T02:22:17;7.37;;;3.50;;
8777;SDS011;4425;50.872;4.712;2022-11-21T02:25:03;5.67;;;3.40;;
8777;SDS011;4425;50.872;4.712;2022-11-21T02:27:33;7.50;;;3.63;;
8777;SDS011;4425;50.872;4.712;2022-11-21T02:32:36;8.03;;;3.50;;
8777;SDS011;4425;50.872;4.712;2022-11-21T02:35:10;8.37;;;3.73;;
8777;SDS011;4425;50.872;4.712;2022-11-21T02:37:40;9.70;;;3.83;;
8777;SDS011;4425;50.872;4.712;2022-11-21T02:40:11;10.30;;;3.73;;
8777;SDS011;4425;50.872;4.712;2022-11-21T02:42:45;6.90;;;3.20;;
8777;SDS011;4425;50.872;4.712;2022-11-21T02:45:24;9.27;;;3.57;;
8777;SDS011;4425;50.872;4.712;2022-11-21T02:47:58;5.83;;;3.40;;
8777;SDS011;4425;50.872;4.712;2022-11-21T02:50:29;13.77;;;3.43;;
8777;SDS011;4425;50.872;4.712;2022-11-21T02:52:57;7.73;;;3.30;;
8777;SDS011;4425;50.872;4.712;2022-11-21T02:55:28;9.47;;;3.17;;
8777;SDS011;4425;50.872;4.712;2022-11-21T02:57:58;9.17;;;3.40;;
8777;SDS011;4425;50.872;4.712;2022-11-21T03:00:26;9.03;;;3.30;;
8777;SDS011;4425;50.872;4.712;2022-11-21T03:02:53;7.33;;;3.10;;
8777;SDS011;4425;50.872;4.712;2022-11-21T03:05:21;9.37;;;3.70;;
8777;SDS011;4425;50.872;4.712;2022-11-21T03:07:49;7.83;;;3.33;;
8777;SDS011;4425;50.872;4.712;2022-11-21T03:10:17;6.93;;;3.17;;
8777;SDS011;4425;50.872;4.712;2022-11-21T03:12:50;7.53;;;3.20;;
8777;SDS011;4425;50.872;4.712;2022-11-21T03:15:26;10.07;;;3.27;;
8777;SDS011;4425;50.872;4.712;2022-11-21T03:17:54;9.50;;;3.60;;
8777;SDS011;4425;50.872;4.712;2022-11-21T03:22:52;8.13;;;3.33;;
8777;SDS011;4425;50.872;4.712;2022-11-21T03:25:20;6.87;;;3.17;;
8777;SDS011;4425;50.872;4.712;2022-11-21T03:28:02;5.43;;;3.60;;
8777;SDS011;4425;50.872;4.712;2022-11-21T03:30:31;8.30;;;3.03;;
8777;SDS011;4425;50.872;4.712;2022-11-21T03:32:58;5.97;;;3.23;;
8777;SDS011;4425;50.872;4.712;2022-11-21T03:35:25;7.13;;;3.40;;
8777;SDS011;4425;50.872;4.712;2022-11-21T03:37:59;8.17;;;3.50;;
8777;SDS011;4425;50.872;4.712;2022-11-21T03:40:26;8.23;;;3.40;;
8777;SDS011;4425;50.872;4.712;2022-11-21T03:42:54;8.40;;;3.50;;
8777;SDS011;4425;50.872;4.712;2022-11-21T03:45:22;9.73;;;3.63;;
8777;SDS011;4425;50.872;4.712;2022-11-21T03:47:52;7.90;;;3.30;;
8777;SDS011;4425;50.872;4.712;2022-11-21T03:50:19;10.37;;;3.73;;
8777;SDS011;4425;50.872;4.712;2022-11-21T03:52:46;6.97;;;3.30;;
8777;SDS011;4425;50.872;4.712;2022-11-21T03:55:14;7.67;;;3.03;;
8777;SDS011;4425;50.872;4.712;2022-11-21T03:57:42;16.07;;;4.10;;
8777;SDS011;4425;50.872;4.712;2022-11-21T04:00:10;9.33;;;3.67;;
8777;SDS011;4425;50.872;4.712;2022-11-21T04:02:40;7.80;;;3.27;;
8777;SDS011;4425;50.872;4.712;2022-11-21T04:05:09;7.90;;;3.67;;
8777;SDS011;4425;50.872;4.712;2022-11-21T04:07:37;3.73;;;3.10;;
8777;SDS011;4425;50.872;4.712;2022-11-21T04:10:07;10.33;;;3.80;;
8777;SDS011;4425;50.872;4.712;2022-11-21T04:12:34;7.33;;;3.30;;
8777;SDS011;4425;50.872;4.712;2022-11-21T04:15:02;4.83;;;3.17;;
8777;SDS011;4425;50.872;4.712;2022-11-21T04:17:29;5.80;;;3.30;;
8777;SDS011;4425;50.872;4.712;2022-11-21T04:19:59;6.43;;;3.53;;
8777;SDS011;4425;50.872;4.712;2022-11-21T04:22:27;8.47;;;3.40;;
8777;SDS011;4425;50.872;4.712;2022-11-21T04:24:55;10.53;;;3.67;;
8777;SDS011;4425;50.872;4.712;2022-11-21T04:27:22;7.40;;;3.73;;
8777;SDS011;4425;50.872;4.712;2022-11-21T04:29:50;6.50;;;3.73;;
8777;SDS011;4425;50.872;4.712;2022-11-21T04:32:20;9.17;;;3.77;;
8777;SDS011;4425;50.872;4.712;2022-11-21T04:34:47;9.73;;;3.70;;
8777;SDS011;4425;50.872;4.712;2022-11-21T04:37:17;8.37;;;3.73;;
8777;SDS011;4425;50.872;4.712;2022-11-21T04:39:44;8.03;;;3.97;;
8777;SDS011;4425;50.872;4.712;2022-11-21T04:42:11;8.00;;;3.63;;
8777;SDS011;4425;50.872;4.712;2022-11-21T04:47:08;7.93;;;3.90;;
8777;SDS011;4425;50.872;4.712;2022-11-21T04:49:36;7.57;;;3.50;;
8777;SDS011;4425;50.872;4.712;2022-11-21T04:52:05;7.60;;;3.63;;
8777;SDS011;4425;50.872;4.712;2022-11-21T04:54:34;8.30;;;4.10;;
8777;SDS011;4425;50.872;4.712;2022-11-21T04:57:02;9.40;;;4.13;;
8777;SDS011;4425;50.872;4.712;2022-11-21T04:59:30;8.13;;;3.90;;
8777;SDS011;4425;50.872;4.712;2022-11-21T05:01:58;7.83;;;3.60;;
8777;SDS011;4425;50.872;4.712;2022-11-21T05:04:26;6.10;;;3.77;;
8777;SDS011;4425;50.872;4.712;2022-11-21T05:06:54;7.13;;;3.60;;
8777;SDS011;4425;50.872;4.712;2022-11-21T05:09:23;7.90;;;3.80;;
8777;SDS011;4425;50.872;4.712;2022-11-21T05:11:55;9.37;;;3.40;;
8777;SDS011;4425;50.872;4.712;2022-11-21T05:14:41;12.20;;;3.83;;
8777;SDS011;4425;50.872;4.712;2022-11-21T05:17:08;10.40;;;3.63;;
8777;SDS011;4425;50.872;4.712;2022-11-21T05:19:37;7.97;;;3.40;;
8777;SDS011;4425;50.872;4.712;2022-11-21T05:22:05;7.67;;;3.87;;
8777;SDS011;4425;50.872;4.712;2022-11-21T05:24:32;4.93;;;3.17;;
8777;SDS011;4425;50.872;4.712;2022-11-21T05:27:05;9.93;;;4.00;;
8777;SDS011;4425;50.872;4.712;2022-11-21T05:29:33;7.73;;;3.10;;
8777;SDS011;4425;50.872;4.712;2022-11-21T05:32:01;10.97;;;3.60;;
8777;SDS011;4425;50.872;4.712;2022-11-21T05:34:29;7.30;;;3.37;;
8777;SDS011;4425;50.872;4.712;2022-11-21T05:36:56;7.70;;;3.67;;
8777;SDS011;4425;50.872;4.712;2022-11-21T05:39:24;11.27;;;3.40;;
8777;SDS011;4425;50.872;4.712;2022-11-21T05:41:51;9.60;;;3.20;;
8777;SDS011;4425;50.872;4.712;2022-11-21T05:44:21;6.13;;;3.10;;
8777;SDS011;4425;50.872;4.712;2022-11-21T05:46:47;8.73;;;3.20;;
8777;SDS011;4425;50.872;4.712;2022-11-21T05:49:15;6.77;;;3.50;;
8777;SDS011;4425;50.872;4.712;2022-11-21T05:51:42;6.93;;;3.23;;
8777;SDS011;4425;50.872;4.712;2022-11-21T05:54:11;6.63;;;3.20;;
8777;SDS011;4425;50.872;4.712;2022-11-21T05:56:42;8.23;;;3.20;;
8777;SDS011;4425;50.872;4.712;2022-11-21T05:59:09;4.57;;;2.77;;
8777;SDS011;4425;50.872;4.712;2022-11-21T06:01:40;4.93;;;3.07;;
8777;SDS011;4425;50.872;4.712;2022-11-21T06:04:24;8.30;;;3.60;;
8777;SDS011;4425;50.872;4.712;2022-11-21T06:06:51;6.93;;;2.80;;
8777;SDS011;4425;50.872;4.712;2022-11-21T06:09:20;5.03;;;2.77;;
8777;SDS011;4425;50.872;4.712;2022-11-21T06:11:47;12.13;;;3.50;;
8777;SDS011;4425;50.872;4.712;2022-11-21T06:14:14;6.53;;;2.90;;
8777;SDS011;4425;50.872;4.712;2022-11-21T06:16:44;8.40;;;3.10;;
8777;SDS011;4425;50.872;4.712;2022-11-21T06:19:13;10.57;;;3.20;;
8777;SDS011;4425;50.872;4.712;2022-11-21T06:21:43;7.50;;;2.80;;
8777;SDS011;4425;50.872;4.712;2022-11-21T06:24:10;7.03;;;2.70;;
8777;SDS011;4425;50.872;4.712;2022-11-21T06:26:39;5.47;;;3.33;;
8777;SDS011;4425;50.872;4.712;2022-11-21T06:29:09;7.30;;;2.70;;
8777;SDS011;4425;50.872;4.712;2022-11-21T06:31:36;6.60;;;2.90;;
8777;SDS011;4425;50.872;4.712;2022-11-21T06:34:04;6.67;;;2.73;;
8777;SDS011;4425;50.872;4.712;2022-11-21T06:36:45;5.03;;;3.03;;
8777;SDS011;4425;50.872;4.712;2022-11-21T06:39:13;6.73;;;3.07;;
8777;SDS011;4425;50.872;4.712;2022-11-21T06:41:40;3.50;;;2.37;;
8777;SDS011;4425;50.872;4.712;2022-11-21T06:44:07;10.30;;;3.10;;
8777;SDS011;4425;50.872;4.712;2022-11-21T06:46:35;6.57;;;3.10;;
8777;SDS011;4425;50.872;4.712;2022-11-21T06:49:06;8.20;;;3.20;;
8777;SDS011;4425;50.872;4.712;2022-11-21T06:51:41;10.43;;;2.87;;
8777;SDS011;4425;50.872;4.712;2022-11-21T06:54:12;10.30;;;3.50;;
8777;SDS011;4425;50.872;4.712;2022-11-21T06:56:44;9.47;;;2.93;;
8777;SDS011;4425;50.872;4.712;2022-11-21T06:59:18;9.50;;;3.40;;
8777;SDS011;4425;50.872;4.712;2022-11-21T07:01:50;8.33;;;3.47;;
8777;SDS011;4425;50.872;4.712;2022-11-21T07:04:25;9.50;;;3.10;;
8777;SDS011;4425;50.872;4.712;2022-11-21T07:06:52;8.80;;;3.60;;
8777;SDS011;4425;50.872;4.712;2022-11-21T07:09:20;43.17;;;4.50;;
8777;SDS011;4425;50.872;4.712;2022-11-21T07:11:58;60.43;;;6.07;;
8777;SDS011;4425;50.872;4.712;2022-11-21T07:14:44;40.47;;;4.27;;
8777;SDS011;4425;50.872;4.712;2022-11-21T07:17:12;41.60;;;5.00;;
8777;SDS011;4425;50.872;4.712;2022-11-21T07:19:46;52.70;;;5.53;;
8777;SDS011;4425;50.872;4.712;2022-11-21T07:22:16;67.67;;;5.90;;
8777;SDS011;4425;50.872;4.712;2022-11-21T07:27:15;16.47;;;4.57;;
8777;SDS011;4425;50.872;4.712;2022-11-21T07:29:45;12.20;;;4.43;;
8777;SDS011;4425;50.872;4.712;2022-11-21T07:32:14;13.00;;;5.00;;
8777;SDS011;4425;50.872;4.712;2022-11-21T07:34:41;12.57;;;5.13;;
8777;SDS011;4425;50.872;4.712;2022-11-21T07:37:11;12.43;;;5.73;;
8777;SDS011;4425;50.872;4.712;2022-11-21T07:39:38;34.27;;;7.17;;
8777;SDS011;4425;50.872;4.712;2022-11-21T07:42:05;22.63;;;6.37;;
8777;SDS011;4425;50.872;4.712;2022-11-21T07:44:32;19.33;;;6.17;;
8777;SDS011;4425;50.872;4.712;2022-11-21T07:47:00;15.87;;;6.37;;
8777;SDS011;4425;50.872;4.712;2022-11-21T07:49:28;13.90;;;5.40;;
8777;SDS011;4425;50.872;4.712;2022-11-21T07:52:00;9.50;;;5.30;;
8777;SDS011;4425;50.872;4.712;2022-11-21T07:57:13;14.43;;;5.10;;
8777;SDS011;4425;50.872;4.712;2022-11-21T07:59:46;10.53;;;4.77;;
8777;SDS011;4425;50.872;4.712;2022-11-21T08:02:16;11.60;;;4.63;;
8777;SDS011;4425;50.872;4.712;2022-11-21T08:04:48;12.17;;;4.80;;
8777;SDS011;4425;50.872;4.712;2022-11-21T08:07:17;12.10;;;4.33;;
8777;SDS011;4425;50.872;4.712;2022-11-21T08:09:53;11.37;;;4.30;;
8777;SDS011;4425;50.872;4.712;2022-11-21T08:12:25;10.73;;;3.80;;
8777;SDS011;4425;50.872;4.712;2022-11-21T08:15:06;10.17;;;3.83;;
8777;SDS011;4425;50.872;4.712;2022-11-21T08:17:35;11.23;;;3.67;;
8777;SDS011;4425;50.872;4.712;2022-11-21T08:20:10;8.80;;;4.00;;
8777;SDS011;4425;50.872;4.712;2022-11-21T08:22:42;13.70;;;4.57;;
8777;SDS011;4425;50.872;4.712;2022-11-21T08:25:22;11.67;;;3.80;;
8777;SDS011;4425;50.872;4.712;2022-11-21T08:28:07;10.47;;;3.50;;
8777;SDS011;4425;50.872;4.712;2022-11-21T08:30:53;9.30;;;3.93;;
8777;SDS011;4425;50.872;4.712;2022-11-21T08:33:31;8.40;;;3.93;;
8777;SDS011;4425;50.872;4.712;2022-11-21T08:36:13;10.77;;;3.90;;
8777;SDS011;4425;50.872;4.712;2022-11-21T08:38:42;6.73;;;3.03;;
8777;SDS011;4425;50.872;4.712;2022-11-21T08:41:22;11.13;;;3.80;;
8777;SDS011;4425;50.872;4.712;2022-11-21T08:44:07;7.73;;;3.33;;
8777;SDS011;4425;50.872;4.712;2022-11-21T08:46:42;9.50;;;3.80;;
8777;SDS011;4425;50.872;4.712;2022-11-21T08:49:25;10.50;;;3.93;;
8777;SDS011;4425;50.872;4.712;2022-11-21T08:51:54;10.77;;;3.87;;
8777;SDS011;4425;50.872;4.712;2022-11-21T08:54:23;9.10;;;3.80;;
8777;SDS011;4425;50.872;4.712;2022-11-21T08:59:50;9.37;;;4.23;;
8777;SDS011;4425;50.872;4.712;2022-11-21T09:02:41;12.83;;;4.33;;
8777;SDS011;4425;50.872;4.712;2022-11-21T09:05:08;12.30;;;4.63;;
8777;SDS011;4425;50.872;4.712;2022-11-21T09:07:36;11.37;;;4.50;;
8777;SDS011;4425;50.872;4.712;2022-11-21T09:10:06;10.73;;;4.77;;
8777;SDS011;4425;50.872;4.712;2022-11-21T09:12:37;8.77;;;4.60;;
8777;SDS011;4425;50.872;4.712;2022-11-21T09:15:08;11.97;;;5.00;;
8777;SDS011;4425;50.872;4.712;2022-11-21T09:17:52;10.87;;;4.73;;
8777;SDS011;4425;50.872;4.712;2022-11-21T09:20:37;9.27;;;5.13;;
8777;SDS011;4425;50.872;4.712;2022-11-21T09:23:08;11.13;;;4.83;;
8777;SDS011;4425;50.872;4.712;2022-11-21T09:25:40;12.40;;;5.13;;
8777;SDS011;4425;50.872;4.712;2022-11-21T09:28:25;11.50;;;5.07;;
8777;SDS011;4425;50.872;4.712;2022-11-21T09:30:53;8.47;;;4.27;;
8777;SDS011;4425;50.872;4.712;2022-11-21T09:33:23;10.87;;;4.80;;
8777;SDS011;4425;50.872;4.712;2022-11-21T09:35:53;6.27;;;4.47;;
8777;SDS011;4425;50.872;4.712;2022-11-21T09:38:26;9.90;;;4.63;;
8777;SDS011;4425;50.872;4.712;2022-11-21T09:41:05;10.17;;;4.97;;
8777;SDS011;4425;50.872;4.712;2022-11-21T09:43:56;12.03;;;4.80;;
8777;SDS011;4425;50.872;4.712;2022-11-21T09:46:48;7.17;;;3.93;;
8777;SDS011;4425;50.872;4.712;2022-11-21T09:49:55;8.17;;;4.67;;
8777;SDS011;4425;50.872;4.712;2022-11-21T09:52:45;6.27;;;4.13;;
8777;SDS011;4425;50.872;4.712;2022-11-21T09:55:39;10.27;;;4.37;;
8777;SDS011;4425;50.872;4.712;2022-11-21T09:58:21;9.30;;;4.03;;
8777;SDS011;4425;50.872;4.712;2022-11-21T10:01:23;8.93;;;3.93;;
8777;SDS011;4425;50.872;4.712;2022-11-21T10:03:55;10.37;;;4.40;;
8777;SDS011;4425;50.872;4.712;2022-11-21T10:06:25;9.60;;;4.40;;
8777;SDS011;4425;50.872;4.712;2022-11-21T10:09:24;9.90;;;4.33;;
8777;SDS011;4425;50.872;4.712;2022-11-21T10:12:06;9.77;;;4.10;;
8777;SDS011;4425;50.872;4.712;2022-11-21T10:24:54;8.17;;;5.70;;
8777;SDS011;4425;50.872;4.712;2022-11-21T10:27:29;8.23;;;5.37;;
8777;SDS011;4425;50.872;4.712;2022-11-21T10:30:12;9.37;;;5.30;;
8777;SDS011;4425;50.872;4.712;2022-11-21T10:32:50;10.30;;;5.63;;
8777;SDS011;4425;50.872;4.712;2022-11-21T10:35:37;7.70;;;5.30;;
8777;SDS011;4425;50.872;4.712;2022-11-21T10:41:37;6.53;;;5.00;;
8777;SDS011;4425;50.872;4.712;2022-11-21T10:44:42;7.37;;;5.40;;
8777;SDS011;4425;50.872;4.712;2022-11-21T10:47:33;8.40;;;4.93;;
8777;SDS011;4425;50.872;4.712;2022-11-21T10:50:28;6.97;;;4.93;;
8777;SDS011;4425;50.872;4.712;2022-11-21T10:53:42;5.23;;;4.63;;
8777;SDS011;4425;50.872;4.712;2022-11-21T10:56:32;5.83;;;4.27;;
8777;SDS011;4425;50.872;4.712;2022-11-21T11:06:09;5.97;;;4.40;;
8777;SDS011;4425;50.872;4.712;2022-11-21T11:09:01;8.40;;;4.60;;
8777;SDS011;4425;50.872;4.712;2022-11-21T11:11:39;6.47;;;4.30;;
8777;SDS011;4425;50.872;4.712;2022-11-21T11:14:27;7.43;;;4.30;;
8777;SDS011;4425;50.872;4.712;2022-11-21T11:17:13;8.20;;;4.57;;
8777;SDS011;4425;50.872;4.712;2022-11-21T11:26:16;10.77;;;4.30;;
8777;SDS011;4425;50.872;4.712;2022-11-21T11:29:12;9.17;;;4.43;;
8777;SDS011;4425;50.872;4.712;2022-11-21T11:32:14;7.43;;;4.27;;
8777;SDS011;4425;50.872;4.712;2022-11-21T11:35:24;8.50;;;4.40;;
8777;SDS011;4425;50.872;4.712;2022-11-21T11:38:01;7.60;;;4.47;;
8777;SDS011;4425;50.872;4.712;2022-11-21T11:40:44;9.77;;;4.63;;
8777;SDS011;4425;50.872;4.712;2022-11-21T11:50:25;7.27;;;4.60;;
8777;SDS011;4425;50.872;4.712;2022-11-21T11:52:59;8.80;;;4.30;;
8777;SDS011;4425;50.872;4.712;2022-11-21T11:59:13;12.47;;;4.73;;
8777;SDS011;4425;50.872;4.712;2022-11-21T12:09:03;12.00;;;4.57;;
8777;SDS011;4425;50.872;4.712;2022-11-21T12:12:53;9.83;;;4.80;;
8777;SDS011;4425;50.872;4.712;2022-11-21T12:16:05;11.83;;;4.80;;
8777;SDS011;4425;50.872;4.712;2022-11-21T12:18:49;12.97;;;4.93;;
8777;SDS011;4425;50.872;4.712;2022-11-21T12:21:23;10.97;;;5.20;;
8777;SDS011;4425;50.872;4.712;2022-11-21T12:23:56;11.43;;;4.90;;
8777;SDS011;4425;50.872;4.712;2022-11-21T12:26:44;12.87;;;4.57;;
8777;SDS011;4425;50.872;4.712;2022-11-21T12:29:37;10.47;;;4.70;;
8777;SDS011;4425;50.872;4.712;2022-11-21T12:32:22;11.67;;;4.50;;
8777;SDS011;4425;50.872;4.712;2022-11-21T12:35:04;13.90;;;4.47;;
8777;SDS011;4425;50.872;4.712;2022-11-21T12:37:49;7.27;;;4.20;;
8777;SDS011;4425;50.872;4.712;2022-11-21T12:40:32;14.77;;;4.73;;
8777;SDS011;4425;50.872;4.712;2022-11-21T12:43:15;9.50;;;4.40;;
8777;SDS011;4425;50.872;4.712;2022-11-21T12:45:50;11.43;;;4.57;;
8777;SDS011;4425;50.872;4.712;2022-11-21T12:48:32;11.40;;;3.87;;
8777;SDS011;4425;50.872;4.712;2022-11-21T12:51:31;15.50;;;4.70;;
8777;SDS011;4425;50.872;4.712;2022-11-21T12:54:47;13.33;;;4.57;;
8777;SDS011;4425;50.872;4.712;2022-11-21T12:57:35;10.90;;;4.33;;
8777;SDS011;4425;50.872;4.712;2022-11-21T13:00:18;11.47;;;4.20;;
8777;SDS011;4425;50.872;4.712;2022-11-21T13:03:14;10.03;;;4.40;;
8777;SDS011;4425;50.872;4.712;2022-11-21T13:06:04;11.17;;;4.67;;
8777;SDS011;4425;50.872;4.712;2022-11-21T13:08:39;8.20;;;4.10;;
8777;SDS011;4425;50.872;4.712;2022-11-21T13:11:10;18.33;;;4.70;;
8777;SDS011;4425;50.872;4.712;2022-11-21T13:14:05;12.07;;;4.30;;
8777;SDS011;4425;50.872;4.712;2022-11-21T13:16:40;11.43;;;3.70;;
8777;SDS011;4425;50.872;4.712;2022-11-21T13:19:15;14.40;;;3.87;;
8777;SDS011;4425;50.872;4.712;2022-11-21T13:21:51;11.03;;;3.97;;
8777;SDS011;4425;50.872;4.712;2022-11-21T13:27:23;9.10;;;4.37;;
8777;SDS011;4425;50.872;4.712;2022-11-21T13:32:50;9.37;;;4.27;;
8777;SDS011;4425;50.872;4.712;2022-11-21T13:38:59;9.07;;;4.10;;
8777;SDS011;4425;50.872;4.712;2022-11-21T13:41:58;11.00;;;3.97;;
8777;SDS011;4425;50.872;4.712;2022-11-21T13:44:54;9.77;;;4.23;;
8777;SDS011;4425;50.872;4.712;2022-11-21T13:47:37;11.63;;;3.80;;
8777;SDS011;4425;50.872;4.712;2022-11-21T13:53:28;10.90;;;3.70;;
8777;SDS011;4425;50.872;4.712;2022-11-21T13:56:33;10.13;;;3.57;;
8777;SDS011;4425;50.872;4.712;2022-11-21T13:59:15;7.83;;;3.23;;
8777;SDS011;4425;50.872;4.712;2022-11-21T14:01:57;6.13;;;3.03;;
8777;SDS011;4425;50.872;4.712;2022-11-21T14:04:56;7.40;;;3.17;;
8777;SDS011;4425;50.872;4.712;2022-11-21T14:07:38;9.07;;;3.33;;
8777;SDS011;4425;50.872;4.712;2022-11-21T14:10:16;6.03;;;3.20;;
8777;SDS011;4425;50.872;4.712;2022-11-21T14:12:56;6.17;;;3.40;;
8777;SDS011;4425;50.872;4.712;2022-11-21T14:15:26;8.47;;;3.17;;
8777;SDS011;4425;50.872;4.712;2022-11-21T14:18:00;7.07;;;3.13;;
8777;SDS011;4425;50.872;4.712;2022-11-21T14:20:28;4.80;;;2.90;;
8777;SDS011;4425;50.872;4.712;2022-11-21T14:23:16;10.50;;;6.67;;
8777;SDS011;4425;50.872;4.712;2022-11-21T14:25:46;7.23;;;2.80;;
8777;SDS011;4425;50.872;4.712;2022-11-21T14:28:26;7.10;;;2.83;;
8777;SDS011;4425;50.872;4.712;2022-11-21T14:30:56;7.20;;;2.70;;
8777;SDS011;4425;50.872;4.712;2022-11-21T14:33:28;3.40;;;2.90;;
8777;SDS011;4425;50.872;4.712;2022-11-21T14:35:59;4.07;;;2.40;;
8777;SDS011;4425;50.872;4.712;2022-11-21T14:38:33;5.20;;;2.70;;
8777;SDS011;4425;50.872;4.712;2022-11-21T14:41:22;7.37;;;2.70;;
8777;SDS011;4425;50.872;4.712;2022-11-21T14:46:43;8.07;;;2.70;;
8777;SDS011;4425;50.872;4.712;2022-11-21T14:49:22;9.87;;;3.00;;
8777;SDS011;4425;50.872;4.712;2022-11-21T14:51:58;8.90;;;2.87;;
8777;SDS011;4425;50.872;4.712;2022-11-21T14:54:54;6.47;;;2.83;;
8777;SDS011;4425;50.872;4.712;2022-11-21T14:57:25;6.37;;;2.73;;
8777;SDS011;4425;50.872;4.712;2022-11-21T15:02:57;5.53;;;2.50;;
8777;SDS011;4425;50.872;4.712;2022-11-21T15:05:34;10.00;;;3.00;;
8777;SDS011;4425;50.872;4.712;2022-11-21T15:08:30;6.17;;;2.77;;
8777;SDS011;4425;50.872;4.712;2022-11-21T15:11:12;6.27;;;2.50;;
8777;SDS011;4425;50.872;4.712;2022-11-21T15:13:55;6.53;;;3.10;;
8777;SDS011;4425;50.872;4.712;2022-11-21T15:16:48;7.60;;;2.80;;
8777;SDS011;4425;50.872;4.712;2022-11-21T15:19:23;5.63;;;2.70;;
8777;SDS011;4425;50.872;4.712;2022-11-21T15:22:14;6.80;;;2.70;;
8777;SDS011;4425;50.872;4.712;2022-11-21T15:25:03;5.07;;;2.67;;
8777;SDS011;4425;50.872;4.712;2022-11-21T15:27:46;7.87;;;2.77;;
8777;SDS011;4425;50.872;4.712;2022-11-21T15:30:23;9.50;;;3.00;;
8777;SDS011;4425;50.872;4.712;2022-11-21T15:33:02;8.73;;;2.93;;
8777;SDS011;4425;50.872;4.712;2022-11-21T15:35:49;8.87;;;3.13;;
8777;SDS011;4425;50.872;4.712;2022-11-21T15:38:31;5.10;;;2.90;;
8777;SDS011;4425;50.872;4.712;2022-11-21T15:41:35;6.63;;;2.80;;
8777;SDS011;4425;50.872;4.712;2022-11-21T15:46:40;7.60;;;2.73;;
8777;SDS011;4425;50.872;4.712;2022-11-21T15:49:27;8.40;;;2.90;;
8777;SDS011;4425;50.872;4.712;2022-11-21T15:52:07;8.80;;;2.93;;
8777;SDS011;4425;50.872;4.712;2022-11-21T15:54:39;6.30;;;3.20;;
8777;SDS011;4425;50.872;4.712;2022-11-21T15:57:11;5.47;;;2.57;;
8777;SDS011;4425;50.872;4.712;2022-11-21T15:59:42;4.90;;;2.73;;
8777;SDS011;4425;50.872;4.712;2022-11-21T16:02:10;3.50;;;2.47;;
8777;SDS011;4425;50.872;4.712;2022-11-21T16:04:41;10.27;;;3.30;;
8777;SDS011;4425;50.872;4.712;2022-11-21T16:07:12;6.97;;;3.03;;
8777;SDS011;4425;50.872;4.712;2022-11-21T16:09:39;5.63;;;2.70;;
8777;SDS011;4425;50.872;4.712;2022-11-21T16:12:09;8.00;;;2.90;;
8777;SDS011;4425;50.872;4.712;2022-11-21T16:17:26;6.90;;;2.93;;
8777;SDS011;4425;50.872;4.712;2022-11-21T16:23:19;9.17;;;3.10;;
8777;SDS011;4425;50.872;4.712;2022-11-21T16:26:01;7.60;;;3.03;;
8777;SDS011;4425;50.872;4.712;2022-11-21T16:28:42;12.00;;;3.30;;
8777;SDS011;4425;50.872;4.712;2022-11-21T16:31:16;6.33;;;2.93;;
8777;SDS011;4425;50.872;4.712;2022-11-21T16:34:00;7.37;;;2.97;;
8777;SDS011;4425;50.872;4.712;2022-11-21T16:46:25;5.67;;;3.20;;
8777;SDS011;4425;50.872;4.712;2022-11-21T16:49:01;7.33;;;3.10;;
8777;SDS011;4425;50.872;4.712;2022-11-21T16:51:47;7.10;;;2.87;;
8777;SDS011;4425;50.872;4.712;2022-11-21T16:57:01;10.60;;;3.47;;
8777;SDS011;4425;50.872;4.712;2022-11-21T16:59:41;7.93;;;2.80;;
8777;SDS011;4425;50.872;4.712;2022-11-21T17:02:28;10.43;;;3.23;;
8777;SDS011;4425;50.872;4.712;2022-11-21T17:05:13;6.80;;;2.90;;
8777;SDS011;4425;50.872;4.712;2022-11-21T17:07:48;13.27;;;3.80;;
8777;SDS011;4425;50.872;4.712;2022-11-21T17:10:33;13.90;;;4.00;;
8777;SDS011;4425;50.872;4.712;2022-11-21T17:13:04;8.40;;;3.73;;
8777;SDS011;4425;50.872;4.712;2022-11-21T17:15:35;10.20;;;3.50;;
8777;SDS011;4425;50.872;4.712;2022-11-21T17:18:10;11.00;;;3.90;;
8777;SDS011;4425;50.872;4.712;2022-11-21T17:20:42;9.20;;;3.30;;
8777;SDS011;4425;50.872;4.712;2022-11-21T17:23:29;10.37;;;3.40;;
8777;SDS011;4425;50.872;4.712;2022-11-21T17:26:02;11.43;;;3.27;;
8777;SDS011;4425;50.872;4.712;2022-11-21T17:28:30;11.10;;;4.40;;
8777;SDS011;4425;50.872;4.712;2022-11-21T17:31:05;8.40;;;3.77;;
8777;SDS011;4425;50.872;4.712;2022-11-21T17:33:49;9.73;;;3.20;;
8777;SDS011;4425;50.872;4.712;2022-11-21T17:36:17;11.00;;;3.40;;
8777;SDS011;4425;50.872;4.712;2022-11-21T17:38:53;10.90;;;3.97;;
8777;SDS011;4425;50.872;4.712;2022-11-21T17:41:35;7.23;;;3.23;;
8777;SDS011;4425;50.872;4.712;2022-11-21T17:44:11;11.87;;;3.97;;
8777;SDS011;4425;50.872;4.712;2022-11-21T17:46:46;9.07;;;3.90;;
8777;SDS011;4425;50.872;4.712;2022-11-21T17:52:21;9.67;;;4.07;;
8777;SDS011;4425;50.872;4.712;2022-11-21T17:55:00;10.60;;;4.40;;
8777;SDS011;4425;50.872;4.712;2022-11-21T18:00:39;8.47;;;3.70;;
8777;SDS011;4425;50.872;4.712;2022-11-21T18:03:11;13.63;;;4.37;;
8777;SDS011;4425;50.872;4.712;2022-11-21T18:06:08;11.47;;;4.27;;